Time;durP1;ratioP1;P1;durP2;ratioP2;P2;SDS_P1;SDS_P2;PMS_P1;PMS_P2;Temp;Humidity;BMP_temperature;BMP_pressure;BME280_temperature;BME280_humidity;BME280_pressure;Samples;Min_cycle;Max_cycle;Signal;HPM_P1;HPM_P2
2024/03/18 00:01:41;;;;;;;;;3.20;3.00;;;;;8.55;100.00;98999.59;6144938;28;96944;-53
2024/03/18 00:04:44;;;;;;;;;2.50;2.00;;;;;8.49;100.00;99006.59;6144998;28;96362;-53
2024/03/18 00:07:46;;;;;;;;;2.00;2.00;;;;;8.47;100.00;99016.72;6144726;28;96388;-53
2024/03/18 00:10:48;;;;;;;;;2.00;2.00;;;;;8.44;100.00;99006.41;6127331;28;96354;-53
2024/03/18 00:13:50;;;;;;;;;2.80;2.00;;;;;8.40;100.00;99007.84;6146239;28;96238;-53
2024/03/18 00:16:54;;;;;;;;;3.00;2.40;;;;;8.28;100.00;98998.69;6149217;28;96381;-53
2024/03/18 00:19:56;;;;;;;;;1.00;1.00;;;;;8.25;100.00;99002.63;6148615;28;97026;-53
2024/03/18 00:22:58;;;;;;;;;2.00;2.00;;;;;8.20;100.00;98998.88;6128160;28;96736;-53
2024/03/18 00:26:00;;;;;;;;;2.00;2.00;;;;;8.27;100.00;98995.16;6124847;28;96322;-53
2024/03/18 00:29:03;;;;;;;;;2.00;2.00;;;;;8.31;100.00;98990.25;6144764;28;96312;-55
2024/03/18 00:32:07;;;;;;;;;2.00;2.00;;;;;8.30;100.00;98993.16;6140541;28;96986;-54
2024/03/18 00:35:10;;;;;;;;;2.60;2.00;;;;;8.24;100.00;98978.66;6140972;28;96554;-55
2024/03/18 00:38:12;;;;;;;;;3.50;3.00;;;;;8.35;100.00;98990.69;6140372;28;96417;-54
2024/03/18 00:44:34;;;;;;;;;3.00;2.75;;;;;8.30;100.00;98980.56;6117202;28;97098;-54
2024/03/18 00:47:37;;;;;;;;;2.00;2.00;;;;;8.30;100.00;98964.44;6125495;28;96772;-54
2024/03/18 00:50:39;;;;;;;;;3.00;3.00;;;;;8.13;100.00;98972.00;6140694;28;96357;-54
2024/03/18 00:53:41;;;;;;;;;3.00;3.00;;;;;8.05;100.00;98984.81;6139267;28;96877;-54
2024/03/18 00:56:43;;;;;;;;;3.00;3.00;;;;;8.07;100.00;98974.66;6140355;28;96450;-54
2024/03/18 00:59:46;;;;;;;;;2.00;2.00;;;;;8.12;100.00;98981.09;6140542;28;97629;-54
2024/03/18 01:02:49;;;;;;;;;3.20;3.00;;;;;7.97;100.00;98969.69;6140003;28;96860;-54
2024/03/18 01:05:51;;;;;;;;;4.00;4.00;;;;;8.11;100.00;98971.38;6124123;28;96935;-54
2024/03/18 01:08:55;;;;;;;;;4.00;4.00;;;;;8.09;100.00;98973.44;6121379;28;96861;-54
2024/03/18 01:11:57;;;;;;;;;3.00;3.00;;;;;8.14;100.00;98973.66;6116179;28;96492;-54
2024/03/18 01:14:59;;;;;;;;;4.00;4.00;;;;;8.14;100.00;98964.78;6116165;28;96402;-54
2024/03/18 01:18:04;;;;;;;;;4.00;4.00;;;;;7.92;100.00;98928.38;6108830;28;96294;-54
2024/03/18 01:21:06;;;;;;;;;4.00;4.00;;;;;8.11;100.00;98955.25;6117520;28;96848;-54
2024/03/18 01:24:08;;;;;;;;;4.00;3.60;;;;;8.17;100.00;98945.56;6139753;28;96920;-54
2024/03/18 01:27:11;;;;;;;;;3.00;3.00;;;;;8.09;100.00;98935.03;6136827;28;96527;-55
2024/03/18 01:30:15;;;;;;;;;5.00;5.00;;;;;8.05;100.00;98949.91;6138477;28;96568;-54
2024/03/18 01:33:18;;;;;;;;;4.40;4.00;;;;;8.00;100.00;98958.56;6138437;28;96584;-54
2024/03/18 01:36:20;;;;;;;;;5.40;5.40;;;;;7.96;100.00;98953.81;6139492;28;96618;-54
2024/03/18 01:39:23;;;;;;;;;4.00;4.00;;;;;7.95;100.00;98939.56;6140434;28;96489;-53
2024/03/18 01:42:25;;;;;;;;;6.00;5.00;;;;;8.10;100.00;98948.25;6147542;28;96381;-53
2024/03/18 01:45:27;;;;;;;;;5.00;4.80;;;;;8.15;100.00;98955.69;6146459;28;96471;-53
2024/03/18 01:48:30;;;;;;;;;4.20;3.20;;;;;8.20;100.00;98942.50;6135877;28;96213;-53
2024/03/18 01:51:33;;;;;;;;;6.75;5.50;;;;;8.15;100.00;98942.28;6142788;28;96374;-53
2024/03/18 01:54:35;;;;;;;;;6.00;6.00;;;;;8.14;100.00;98949.50;6146960;28;96428;-53
2024/03/18 01:57:37;;;;;;;;;6.80;6.80;;;;;8.08;100.00;98949.47;6146564;28;96886;-53
2024/03/18 02:00:41;;;;;;;;;7.40;7.40;;;;;7.66;100.00;98891.59;6129540;28;96962;-55
2024/03/18 02:07:30;;;;;;;;;5.40;5.40;;;;;7.95;100.00;98955.66;6143736;28;98342;-57
2024/03/18 02:10:32;;;;;;;;;6.00;6.00;;;;;7.97;100.00;98958.13;6123785;28;96200;-57
2024/03/18 02:13:34;;;;;;;;;7.00;7.00;;;;;7.80;100.00;98960.38;6123261;28;96396;-58
2024/03/18 02:16:36;;;;;;;;;5.40;5.40;;;;;7.72;100.00;98953.31;6125897;28;97154;-58
2024/03/18 02:19:38;;;;;;;;;5.00;5.00;;;;;7.73;100.00;98952.28;6124035;28;96371;-57
2024/03/18 02:22:42;;;;;;;;;4.20;4.20;;;;;7.75;100.00;98947.56;6122760;28;96625;-57
2024/03/18 02:25:45;;;;;;;;;7.00;7.00;;;;;7.80;100.00;98952.31;6105805;28;98610;-57
2024/03/18 02:28:47;;;;;;;;;6.00;6.00;;;;;7.75;100.00;98954.78;6107047;28;96353;-57
2024/03/18 02:31:49;;;;;;;;;7.00;6.40;;;;;7.82;100.00;98951.06;6125762;28;96919;-57
2024/03/18 02:34:52;;;;;;;;;7.00;6.20;;;;;7.69;100.00;98955.59;6123334;28;96910;-57
2024/03/18 02:37:55;;;;;;;;;7.20;6.00;;;;;7.74;100.00;98955.81;6135895;28;96868;-57
2024/03/18 02:40:57;;;;;;;;;7.00;6.00;;;;;7.64;100.00;98956.19;6142739;28;96424;-57
2024/03/18 02:43:59;;;;;;;;;7.00;5.60;;;;;7.40;100.00;98916.47;6123195;28;96458;-57
2024/03/18 02:47:02;;;;;;;;;6.00;6.00;;;;;7.52;100.00;98943.56;6130417;28;96370;-57
2024/03/18 02:50:05;;;;;;;;;5.00;4.80;;;;;7.65;100.00;98955.16;6132234;28;96481;-56
2024/03/18 02:53:09;;;;;;;;;5.00;5.00;;;;;7.62;100.00;98934.13;6125437;28;96843;-57
2024/03/18 02:56:11;;;;;;;;;5.00;4.50;;;;;7.66;100.00;98953.31;6129007;28;96328;-57
2024/03/18 02:59:13;;;;;;;;;5.50;5.50;;;;;7.59;100.00;98939.88;6125871;28;97648;-57
2024/03/18 03:02:15;;;;;;;;;5.00;5.00;;;;;7.57;100.00;98935.75;6124181;28;97171;-58
2024/03/18 03:05:17;;;;;;;;;4.80;4.80;;;;;7.52;100.00;98933.66;6124010;28;96395;-57
2024/03/18 03:08:22;;;;;;;;;4.80;4.00;;;;;7.61;100.00;98943.19;6136086;28;96353;-57
2024/03/18 03:11:24;;;;;;;;;6.00;5.60;;;;;7.59;100.00;98939.03;6129382;28;96643;-57
2024/03/18 03:14:26;;;;;;;;;3.60;3.60;;;;;7.53;100.00;98934.47;6130505;28;96564;-57
2024/03/18 03:17:28;;;;;;;;;3.00;2.60;;;;;7.60;100.00;98941.53;6130650;28;99713;-57
2024/03/18 03:20:31;;;;;;;;;6.25;6.25;;;;;7.65;100.00;98935.56;6159539;28;96483;-57
2024/03/18 03:23:36;;;;;;;;;6.00;6.00;;;;;7.56;100.00;98945.66;6173223;28;96313;-57
2024/03/18 03:26:39;;;;;;;;;6.00;6.00;;;;;7.60;100.00;98946.06;6172257;28;96348;-57
2024/03/18 03:29:41;;;;;;;;;5.00;4.00;;;;;7.47;100.00;98940.66;6159364;28;96283;-56
2024/03/18 03:32:43;;;;;;;;;4.00;4.00;;;;;7.23;100.00;98924.03;6165864;28;96544;-56
2024/03/18 03:35:45;;;;;;;;;4.00;4.00;;;;;7.10;100.00;98937.38;6149693;28;96477;-57
2024/03/18 03:38:49;;;;;;;;;4.00;3.60;;;;;7.01;100.00;98951.97;6149683;28;96662;-57
2024/03/18 03:41:51;;;;;;;;;4.00;3.00;;;;;6.74;100.00;98931.41;6165466;28;96401;-56
2024/03/18 03:44:53;;;;;;;;;3.60;3.60;;;;;6.92;100.00;98959.34;6148843;28;96341;-56
2024/03/18 03:47:55;;;;;;;;;2.25;2.25;;;;;6.68;100.00;98953.59;6149109;28;96556;-56
2024/03/18 03:50:57;;;;;;;;;4.60;3.60;;;;;6.74;100.00;98951.00;6153155;28;96428;-57
2024/03/18 03:54:01;;;;;;;;;4.00;4.00;;;;;6.78;100.00;98960.28;6154457;28;96328;-57
2024/03/18 03:57:04;;;;;;;;;4.00;4.00;;;;;6.68;100.00;98959.81;6162999;28;96361;-58
2024/03/18 04:00:11;;;;;;;;;2.60;2.60;;;;;6.62;100.00;98955.22;6138059;28;96396;-56
2024/03/18 04:03:20;;;;;;;;;1.20;1.20;;;;;6.71;100.00;98959.41;6131242;28;96671;-55
2024/03/18 04:06:22;;;;;;;;;3.00;3.00;;;;;6.77;100.00;98953.25;6153113;28;96384;-57
2024/03/18 04:09:25;;;;;;;;;2.00;2.00;;;;;6.76;100.00;98967.69;6152581;28;96805;-57
2024/03/18 04:12:27;;;;;;;;;3.00;3.00;;;;;6.82;100.00;98958.03;6143421;28;97659;-57
2024/03/18 04:15:29;;;;;;;;;3.00;3.00;;;;;6.85;100.00;98971.84;6129668;28;98626;-55
2024/03/18 04:18:31;;;;;;;;;3.00;3.00;;;;;6.82;100.00;98961.53;6133586;28;96883;-56
2024/03/18 04:21:34;;;;;;;;;3.00;3.00;;;;;6.76;100.00;98965.00;6147101;28;96362;-57
2024/03/18 04:24:37;;;;;;;;;1.25;1.25;;;;;6.71;100.00;98958.56;6131985;28;96447;-57
2024/03/18 04:27:39;;;;;;;;;2.00;1.40;;;;;6.69;100.00;98958.78;6138066;28;96379;-56
2024/03/18 04:30:43;;;;;;;;;2.00;2.00;;;;;6.69;100.00;98966.81;6120394;28;96242;-52
2024/03/18 04:33:45;;;;;;;;;2.00;2.00;;;;;6.66;100.00;98967.19;6133898;28;96849;-53
2024/03/18 04:36:47;;;;;;;;;2.00;2.00;;;;;6.59;100.00;98966.31;6134782;28;97118;-53
2024/03/18 04:39:50;;;;;;;;;3.00;3.00;;;;;6.61;100.00;98982.19;6130620;28;96339;-53
2024/03/18 04:42:54;;;;;;;;;2.00;2.00;;;;;6.53;100.00;98972.44;6118455;28;96338;-52
2024/03/18 04:45:56;;;;;;;;;3.00;2.00;;;;;6.61;100.00;98979.50;6094740;28;99851;-53
2024/03/18 04:48:58;;;;;;;;;2.00;2.00;;;;;6.57;100.00;98973.72;6135417;28;96521;-54
2024/03/18 04:52:00;;;;;;;;;3.00;3.00;;;;;6.65;100.00;98980.78;6122222;28;96984;-53
2024/03/18 04:55:05;;;;;;;;;4.00;3.40;;;;;6.69;100.00;98977.53;6122917;28;96499;-52
2024/03/18 04:58:07;;;;;;;;;3.00;3.00;;;;;6.60;100.00;98969.84;6092741;28;96749;-52
2024/03/18 05:01:09;;;;;;;;;3.00;3.00;;;;;6.58;100.00;98964.66;6133153;28;96439;-53
2024/03/18 05:04:11;;;;;;;;;3.00;3.00;;;;;6.58;100.00;98947.75;6128614;28;97475;-53
2024/03/18 05:07:13;;;;;;;;;2.00;1.80;;;;;6.70;100.00;98959.59;6146613;28;97423;-52
2024/03/18 05:10:21;;;;;;;;;2.00;2.00;;;;;6.73;100.00;98960.03;6134222;28;97532;-53
2024/03/18 05:13:23;;;;;;;;;2.20;2.20;;;;;6.78;100.00;98962.97;6154609;28;96302;-53
2024/03/18 05:16:27;;;;;;;;;4.00;4.00;;;;;6.84;100.00;98958.69;6141890;28;96406;-55
2024/03/18 05:19:29;;;;;;;;;3.00;3.00;;;;;6.85;100.00;98958.47;6131759;28;97378;-53
2024/03/18 05:22:32;;;;;;;;;4.00;4.00;;;;;6.83;100.00;98963.22;6136134;28;96111;-54
2024/03/18 05:25:36;;;;;;;;;4.00;3.60;;;;;6.86;100.00;98957.44;6134615;28;96638;-53
2024/03/18 05:28:38;;;;;;;;;3.60;3.00;;;;;6.99;100.00;98975.44;6148061;28;96430;-53
2024/03/18 05:31:40;;;;;;;;;3.50;3.00;;;;;7.01;100.00;98975.25;6120467;28;97894;-53
2024/03/18 05:34:45;;;;;;;;;4.00;4.00;;;;;6.95;100.00;98985.75;6139325;28;96367;-53
2024/03/18 05:37:47;;;;;;;;;4.75;4.00;;;;;6.94;100.00;98989.44;6136958;28;97074;-55
2024/03/18 05:40:50;;;;;;;;;5.00;4.60;;;;;6.99;100.00;98980.81;6103467;28;96503;-56
2024/03/18 05:43:53;;;;;;;;;5.00;4.40;;;;;6.89;100.00;98978.47;6129721;28;96257;-56
2024/03/18 05:46:55;;;;;;;;;4.25;4.00;;;;;6.93;100.00;98979.78;6107382;28;99515;-57
2024/03/18 05:49:58;;;;;;;;;5.20;4.80;;;;;7.02;100.00;98983.13;6121139;28;98012;-56
2024/03/18 05:53:00;;;;;;;;;5.80;5.00;;;;;7.11;100.00;98991.81;6129938;28;96388;-57
2024/03/18 05:56:04;;;;;;;;;4.00;3.75;;;;;7.15;100.00;98987.72;6110361;28;96948;-56
2024/03/18 05:59:06;;;;;;;;;4.60;4.00;;;;;7.14;100.00;98988.75;6139756;28;96801;-56
2024/03/18 06:02:08;;;;;;;;;7.00;7.00;;;;;7.02;100.00;98991.16;6127449;28;97690;-56
2024/03/18 06:05:10;;;;;;;;;8.00;7.80;;;;;6.94;100.00;98986.75;6137815;28;97036;-56
2024/03/18 06:08:12;;;;;;;;;8.00;8.00;;;;;6.96;100.00;98992.75;6127849;28;96684;-57
2024/03/18 06:11:15;;;;;;;;;10.60;9.60;;;;;6.95;100.00;98985.75;6134357;28;96417;-57
2024/03/18 06:14:18;;;;;;;;;10.80;8.00;;;;;6.92;100.00;98996.03;6139283;28;96426;-57
2024/03/18 06:17:20;;;;;;;;;8.40;7.40;;;;;6.90;100.00;98998.91;6134835;28;96614;-57
2024/03/18 06:20:22;;;;;;;;;8.60;7.60;;;;;6.92;100.00;99001.41;6113733;28;99235;-56
2024/03/18 06:23:26;;;;;;;;;9.00;8.00;;;;;7.05;100.00;98998.78;6118196;28;97163;-55
2024/03/18 06:26:28;;;;;;;;;6.40;6.00;;;;;7.08;100.00;98987.69;6131979;28;96605;-57
2024/03/18 06:29:30;;;;;;;;;7.00;6.00;;;;;7.12;100.00;98993.50;6128510;28;96365;-56
2024/03/18 06:32:32;;;;;;;;;8.40;7.00;;;;;7.29;100.00;99001.00;6114706;28;96629;-56
2024/03/18 06:35:34;;;;;;;;;8.00;7.00;;;;;7.55;100.00;99002.16;6108597;28;97350;-56
2024/03/18 06:38:37;;;;;;;;;8.20;8.00;;;;;7.79;100.00;98988.22;6109800;28;96392;-56
2024/03/18 06:41:40;;;;;;;;;8.60;7.00;;;;;8.05;100.00;98992.84;6120687;28;97744;-56
2024/03/18 06:44:44;;;;;;;;;6.60;5.60;;;;;8.09;100.00;98989.56;6129525;28;97270;-56
2024/03/18 06:47:46;;;;;;;;;7.00;6.00;;;;;8.45;100.00;98991.94;6125539;28;97574;-57
2024/03/18 06:50:48;;;;;;;;;7.00;6.00;;;;;8.88;100.00;98994.19;6128729;28;96921;-57
2024/03/18 06:53:51;;;;;;;;;8.00;8.00;;;;;9.41;100.00;98989.53;6133707;28;96458;-57
2024/03/18 06:56:54;;;;;;;;;5.00;4.40;;;;;9.99;100.00;98985.78;6129204;28;96727;-58
2024/03/18 06:59:58;;;;;;;;;7.00;6.40;;;;;11.80;100.00;98974.84;6123201;28;96406;-58
2024/03/18 07:03:00;;;;;;;;;7.00;6.00;;;;;15.16;88.44;98978.13;6133003;28;96700;-58
2024/03/18 07:06:03;;;;;;;;;5.00;4.75;;;;;16.27;72.44;98971.41;6128428;28;97064;-58
2024/03/18 07:09:07;;;;;;;;;6.00;4.40;;;;;15.86;73.80;98981.03;6128033;28;96478;-58
2024/03/18 07:12:10;;;;;;;;;5.00;5.00;;;;;14.79;73.16;98977.84;6139304;28;96966;-58
2024/03/18 07:15:14;;;;;;;;;7.00;6.60;;;;;13.84;77.25;98983.91;6131698;28;96364;-58
2024/03/18 07:18:16;;;;;;;;;6.00;5.00;;;;;13.05;78.94;98990.00;6127075;28;96428;-58
2024/03/18 07:21:19;;;;;;;;;4.80;4.80;;;;;12.18;81.06;98988.88;6127693;28;96577;-58
2024/03/18 07:24:21;;;;;;;;;3.60;3.60;;;;;11.53;84.21;98991.34;6116192;28;96412;-58
2024/03/18 07:27:24;;;;;;;;;5.00;5.00;;;;;10.86;87.24;98995.75;6133648;28;96393;-58
2024/03/18 07:30:26;;;;;;;;;4.20;4.20;;;;;10.43;91.61;98986.78;6134932;28;97277;-57
2024/03/18 07:33:28;;;;;;;;;4.67;4.67;;;;;10.18;93.23;98992.13;6137314;28;97114;-57
2024/03/18 07:36:30;;;;;;;;;5.00;5.00;;;;;9.98;95.19;98992.19;6131220;28;97078;-57
2024/03/18 07:39:32;;;;;;;;;4.40;4.00;;;;;9.65;95.20;98986.16;6136196;28;96455;-57
2024/03/18 07:42:36;;;;;;;;;5.80;5.80;;;;;9.76;97.29;99003.50;6132364;28;99932;-58
2024/03/18 07:45:38;;;;;;;;;4.60;4.60;;;;;9.51;97.79;98989.94;6138164;28;96951;-57
2024/03/18 07:48:40;;;;;;;;;4.00;4.00;;;;;9.50;99.31;98997.16;6112069;28;96932;-57
2024/03/18 07:51:42;;;;;;;;;4.00;4.00;;;;;9.47;98.02;98994.91;6107811;28;98341;-57
2024/03/18 07:54:44;;;;;;;;;3.80;3.80;;;;;9.62;97.32;99004.59;6139403;28;96781;-57
2024/03/18 07:57:48;;;;;;;;;4.00;4.00;;;;;9.64;94.23;99003.31;6137491;28;96675;-58
2024/03/18 08:00:50;;;;;;;;;2.40;2.00;;;;;9.64;93.31;98997.13;6123466;28;99130;-57
2024/03/18 08:03:52;;;;;;;;;3.00;3.00;;;;;9.58;93.54;98994.22;6136134;28;97569;-56
2024/03/18 08:06:54;;;;;;;;;5.00;4.00;;;;;9.69;92.52;98995.44;6128464;28;96959;-57
2024/03/18 08:09:57;;;;;;;;;3.60;3.00;;;;;9.77;94.52;99002.47;6130868;28;96517;-56
2024/03/18 08:13:00;;;;;;;;;2.50;2.50;;;;;9.80;91.67;99002.84;6135080;28;96457;-56
2024/03/18 08:16:02;;;;;;;;;3.00;2.40;;;;;9.65;92.22;99001.47;6125610;28;96467;-56
2024/03/18 08:19:04;;;;;;;;;4.00;4.00;;;;;9.41;91.80;99000.31;6136443;28;96490;-57
2024/03/18 08:22:06;;;;;;;;;3.00;3.00;;;;;9.32;93.36;98994.34;6125379;28;96385;-57
2024/03/18 08:25:09;;;;;;;;;3.25;3.00;;;;;9.46;93.03;98997.81;6138902;28;96612;-57
2024/03/18 08:28:13;;;;;;;;;3.00;3.00;;;;;9.41;92.43;98998.44;6117887;28;96285;-57
2024/03/18 08:31:15;;;;;;;;;4.00;3.00;;;;;9.43;91.17;98995.56;6126738;28;96819;-59
2024/03/18 08:34:17;;;;;;;;;2.00;2.00;;;;;9.46;92.49;98984.34;6145385;28;96196;-57
2024/03/18 08:37:20;;;;;;;;;4.00;3.00;;;;;9.60;91.54;98993.19;6126781;28;96561;-58
2024/03/18 08:40:22;;;;;;;;;4.00;4.00;;;;;9.50;94.13;98994.47;6136490;28;97150;-56
2024/03/18 08:43:25;;;;;;;;;5.00;5.00;;;;;9.34;92.85;98970.72;6136486;28;96794;-56
2024/03/18 08:46:28;;;;;;;;;4.00;3.00;;;;;9.60;93.07;98982.44;6123685;28;96601;-57
2024/03/18 08:49:30;;;;;;;;;4.60;4.60;;;;;9.64;92.57;98983.66;6122299;28;96791;-57
2024/03/18 08:52:33;;;;;;;;;4.00;4.00;;;;;9.69;92.24;98981.16;6131024;28;96214;-56
2024/03/18 08:55:35;;;;;;;;;4.60;4.00;;;;;9.71;94.14;98985.28;6131910;28;96885;-56
2024/03/18 08:58:38;;;;;;;;;3.00;3.00;;;;;9.76;91.74;98973.88;6114362;28;97261;-56
2024/03/18 09:01:40;;;;;;;;;3.00;3.00;;;;;10.14;89.47;98979.28;6136119;28;96307;-56
2024/03/18 09:04:42;;;;;;;;;3.00;3.00;;;;;10.68;88.79;98976.00;6131473;28;96455;-56
2024/03/18 09:07:44;;;;;;;;;3.00;3.00;;;;;10.85;84.00;98963.59;6115308;28;96459;-57
2024/03/18 09:10:46;;;;;;;;;4.00;3.00;;;;;11.33;84.29;98981.84;6133827;28;96521;-57
2024/03/18 09:13:50;;;;;;;;;3.60;3.00;;;;;11.75;81.36;98983.66;6129312;28;96272;-57
2024/03/18 09:16:52;;;;;;;;;5.00;5.00;;;;;12.03;79.42;98983.88;6125644;28;97036;-57
2024/03/18 09:19:54;;;;;;;;;2.40;2.40;;;;;12.03;74.60;98980.38;6134603;28;97192;-57
2024/03/18 09:22:56;;;;;;;;;4.00;4.00;;;;;12.19;74.06;98984.31;6130528;28;96368;-57
2024/03/18 09:25:58;;;;;;;;;4.00;4.00;;;;;12.59;73.66;98977.25;6131080;28;96877;-56
2024/03/18 09:29:01;;;;;;;;;4.00;4.00;;;;;12.80;70.31;98986.72;6131876;28;96765;-56
2024/03/18 09:32:04;;;;;;;;;6.00;6.00;;;;;12.92;70.79;98974.00;6132432;28;96371;-57
2024/03/18 09:35:08;;;;;;;;;5.00;4.00;;;;;14.30;68.14;98971.25;6135692;28;97185;-56
2024/03/18 09:38:11;;;;;;;;;3.20;3.00;;;;;15.32;62.28;98968.31;6130814;28;96464;-57
2024/03/18 09:41:18;;;;;;;;;5.00;4.25;;;;;15.51;59.69;98975.94;6139293;28;96354;-57
2024/03/18 09:44:22;;;;;;;;;4.00;4.00;;;;;15.28;58.85;98959.03;6139264;28;96539;-55
2024/03/18 09:47:25;;;;;;;;;5.00;5.00;;;;;14.71;60.65;98954.63;6131780;28;97292;-57
2024/03/18 09:50:28;;;;;;;;;3.00;3.00;;;;;14.31;61.33;98962.06;6131075;28;96715;-56
2024/03/18 09:53:31;;;;;;;;;3.40;3.40;;;;;13.76;64.29;98964.50;6141287;28;96229;-57
2024/03/18 09:56:34;;;;;;;;;3.00;3.00;;;;;13.33;64.17;98957.66;6129018;28;96574;-57
2024/03/18 09:59:37;;;;;;;;;4.00;4.00;;;;;12.85;65.06;98932.72;6132566;28;97035;-57
2024/03/18 10:02:39;;;;;;;;;3.00;3.00;;;;;12.74;68.39;98958.69;6121702;28;96729;-56
2024/03/18 10:05:42;;;;;;;;;4.00;4.00;;;;;12.38;70.38;98948.03;6134323;28;96597;-57
2024/03/18 10:08:45;;;;;;;;;6.00;6.00;;;;;12.04;73.55;98965.81;6152343;28;96414;-56
2024/03/18 10:11:47;;;;;;;;;4.00;4.00;;;;;11.69;74.42;98960.19;6132883;28;96251;-57
2024/03/18 10:14:50;;;;;;;;;4.33;4.00;;;;;11.42;76.43;98964.28;6137409;28;97043;-57
2024/03/18 10:17:54;;;;;;;;;7.50;5.50;;;;;11.15;80.78;98961.03;6129665;28;96500;-56
2024/03/18 10:21:00;;;;;;;;;5.00;4.80;;;;;11.04;81.51;98957.22;6140144;28;96282;-56
2024/03/18 10:24:02;;;;;;;;;5.00;5.00;;;;;10.93;81.16;98957.94;6162744;28;96341;-56
2024/03/18 10:27:05;;;;;;;;;6.20;6.20;;;;;10.76;83.51;98960.38;6143340;28;96367;-57
2024/03/18 10:30:12;;;;;;;;;5.75;5.75;;;;;10.61;86.06;98950.97;6163908;28;96359;-57
2024/03/18 10:33:18;;;;;;;;;3.20;3.20;;;;;10.54;86.01;98953.72;6161620;28;96656;-58
2024/03/18 10:36:24;;;;;;;;;6.00;6.00;;;;;10.45;87.63;98946.97;6161533;28;96631;-57
2024/03/18 10:39:36;;;;;;;;;4.60;4.60;;;;;10.51;86.56;98954.16;6165935;28;96401;-56
2024/03/18 10:42:44;;;;;;;;;5.00;5.00;;;;;10.34;87.04;98958.44;6141836;28;97157;-57
2024/03/18 10:45:50;;;;;;;;;7.00;5.75;;;;;10.34;87.03;98948.50;6158803;28;96283;-56
2024/03/18 10:48:53;;;;;;;;;5.00;5.00;;;;;10.43;85.13;98957.13;6157493;28;96386;-57
2024/03/18 10:51:55;;;;;;;;;5.25;5.00;;;;;10.70;85.87;98947.75;6160788;28;96515;-57
2024/03/18 10:54:58;;;;;;;;;5.00;5.00;;;;;10.82;83.75;98942.47;6133750;28;98559;-57
2024/03/18 10:58:02;;;;;;;;;4.00;4.00;;;;;10.77;84.30;98945.84;6148835;28;96273;-58
2024/03/18 11:01:06;;;;;;;;;8.00;8.00;;;;;11.28;82.71;98942.84;6156813;28;96912;-57
2024/03/18 11:04:19;;;;;;;;;7.00;7.00;;;;;11.83;79.15;98941.97;6158061;28;96350;-57
2024/03/18 11:07:21;;;;;;;;;5.00;5.00;;;;;12.19;75.32;98933.78;6150182;28;96266;-57
2024/03/18 11:10:24;;;;;;;;;5.20;5.00;;;;;13.05;73.32;98924.25;6150214;28;96215;-58
2024/03/18 11:13:33;;;;;;;;;6.00;6.00;;;;;13.86;68.06;98927.59;6164311;28;96370;-57
2024/03/18 11:16:43;;;;;;;;;6.00;6.00;;;;;14.85;65.07;98919.84;6158623;28;96378;-58
2024/03/18 11:19:46;;;;;;;;;7.00;7.00;;;;;15.18;60.25;98922.50;6135494;28;98873;-57
2024/03/18 11:22:55;;;;;;;;;6.80;6.00;;;;;15.14;59.05;98923.25;6166256;28;96348;-58
2024/03/18 11:25:58;;;;;;;;;8.00;7.00;;;;;14.99;59.99;98925.75;6163980;28;96253;-57
2024/03/18 11:29:04;;;;;;;;;7.00;6.00;;;;;14.60;63.76;98917.56;6158584;28;96372;-57
2024/03/18 11:32:11;;;;;;;;;7.00;6.00;;;;;14.18;64.04;98924.38;6124382;28;96774;-57
2024/03/18 11:35:13;;;;;;;;;7.00;7.00;;;;;13.62;63.90;98914.38;6137769;28;96620;-57
2024/03/18 11:38:16;;;;;;;;;7.00;7.00;;;;;13.09;66.49;98910.00;6122796;28;96373;-57
2024/03/18 11:41:18;;;;;;;;;8.60;8.60;;;;;12.77;68.49;98920.34;6136775;28;96887;-56
2024/03/18 11:44:20;;;;;;;;;7.00;7.00;;;;;12.47;71.00;98909.63;6113401;28;96810;-57
2024/03/18 11:47:24;;;;;;;;;7.80;7.00;;;;;12.10;72.30;98911.66;6133463;28;96964;-57
2024/03/18 11:50:29;;;;;;;;;9.00;8.00;;;;;11.83;73.31;98904.16;6128084;28;96626;-57
2024/03/18 11:53:31;;;;;;;;;9.00;8.00;;;;;11.69;77.81;98911.59;6116672;28;96461;-57
2024/03/18 11:56:34;;;;;;;;;8.80;8.00;;;;;11.56;77.35;98903.69;6132881;28;97127;-57
2024/03/18 11:59:36;;;;;;;;;7.50;6.50;;;;;11.44;78.53;98903.59;6116432;28;96460;-58
2024/03/18 12:02:41;;;;;;;;;8.00;7.00;;;;;11.35;79.26;98904.97;6115164;28;97823;-58
2024/03/18 12:05:46;;;;;;;;;8.60;8.00;;;;;11.18;80.17;98903.94;6129738;28;96897;-57
2024/03/18 12:08:49;;;;;;;;;8.25;8.00;;;;;11.10;80.34;98894.25;6128487;28;96781;-59
2024/03/18 12:11:51;;;;;;;;;8.60;7.00;;;;;11.07;80.56;98894.72;6130911;28;96322;-57
2024/03/18 12:14:54;;;;;;;;;8.25;7.25;;;;;11.05;80.50;98887.88;6120897;28;96640;-57
2024/03/18 12:17:58;;;;;;;;;10.00;9.00;;;;;10.91;82.76;98892.59;6116576;28;97253;-57
2024/03/18 12:21:00;;;;;;;;;8.00;8.00;;;;;10.89;80.76;98881.22;6140715;28;96348;-57
2024/03/18 12:30:55;;;;;;;;;8.60;8.00;;;;;10.81;83.98;98874.25;6128841;28;96648;-57
2024/03/18 12:34:01;;;;;;;;;9.50;9.00;;;;;10.84;82.31;98876.50;6120967;28;96327;-56
2024/03/18 12:37:03;;;;;;;;;9.00;9.00;;;;;10.81;79.97;98884.19;6137507;28;96421;-57
2024/03/18 12:40:09;;;;;;;;;12.00;10.25;;;;;10.63;81.94;98879.63;6123512;28;96625;-57
2024/03/18 12:43:11;;;;;;;;;10.00;10.00;;;;;10.49;83.85;98886.19;6146327;28;96465;-53
2024/03/18 12:46:14;;;;;;;;;11.00;11.00;;;;;10.43;85.17;98890.56;6142783;28;97076;-55
2024/03/18 12:49:18;;;;;;;;;11.80;11.00;;;;;10.41;86.63;98881.88;6132197;28;96335;-54
2024/03/18 12:52:20;;;;;;;;;9.00;9.00;;;;;10.42;86.28;98869.22;6130888;28;96395;-55
2024/03/18 12:55:22;;;;;;;;;8.80;8.80;;;;;10.42;84.36;98880.00;6132829;28;96382;-53
2024/03/18 12:58:24;;;;;;;;;10.00;9.00;;;;;10.18;84.16;98876.28;6148436;28;97082;-52
2024/03/18 13:01:26;;;;;;;;;9.60;9.00;;;;;10.19;86.04;98874.41;6123380;28;97019;-53
2024/03/18 13:04:30;;;;;;;;;10.00;9.00;;;;;10.16;87.00;98878.38;6147338;28;97069;-55
2024/03/18 13:07:32;;;;;;;;;9.00;8.50;;;;;10.02;88.04;98878.66;6139642;28;96445;-53
2024/03/18 13:10:35;;;;;;;;;9.25;9.25;;;;;9.98;88.05;98879.06;6138987;28;96655;-54
2024/03/18 13:13:40;;;;;;;;;10.00;9.00;;;;;9.90;89.12;98883.91;6145581;28;96949;-53
2024/03/18 13:16:42;;;;;;;;;10.00;9.00;;;;;9.87;88.00;98879.78;6140138;28;96528;-53
2024/03/18 13:19:46;;;;;;;;;9.50;9.00;;;;;9.85;87.89;98887.25;6126790;28;98405;-54
2024/03/18 13:22:49;;;;;;;;;11.60;11.00;;;;;9.78;87.47;98881.06;6141270;28;96662;-54
2024/03/18 13:25:54;;;;;;;;;9.00;8.60;;;;;9.80;88.68;98878.19;6139857;28;96314;-56
2024/03/18 13:28:56;;;;;;;;;8.40;8.00;;;;;9.68;89.54;98861.88;6144452;28;96322;-54
2024/03/18 13:31:58;;;;;;;;;10.20;10.00;;;;;9.67;89.56;98880.97;6144568;28;96342;-53
2024/03/18 13:35:02;;;;;;;;;10.00;8.00;;;;;9.70;93.46;98886.72;6131299;28;96352;-56
2024/03/18 13:38:07;;;;;;;;;10.60;9.00;;;;;9.49;91.74;98842.13;6143065;28;96672;-53
2024/03/18 13:41:12;;;;;;;;;10.00;9.60;;;;;9.82;89.25;98876.91;6136041;28;96260;-54
2024/03/18 13:44:15;;;;;;;;;11.00;10.00;;;;;9.89;91.60;98868.78;6132181;28;99748;-52
2024/03/18 13:47:18;;;;;;;;;9.00;8.25;;;;;9.90;91.29;98816.59;6124947;28;98801;-54
2024/03/18 13:50:24;;;;;;;;;9.00;8.00;;;;;10.56;87.44;98883.41;6124530;28;97506;-57
2024/03/18 13:53:26;;;;;;;;;9.00;9.00;;;;;10.66;86.54;98875.63;6117524;28;97747;-57
2024/03/18 13:56:30;;;;;;;;;8.00;7.00;;;;;10.74;84.01;98880.75;6114141;28;96508;-57
2024/03/18 13:59:35;;;;;;;;;9.00;9.00;;;;;10.61;83.36;98868.22;6128898;28;96474;-57
2024/03/18 14:02:37;;;;;;;;;8.00;8.00;;;;;10.44;82.21;98859.06;6135455;28;97392;-57
2024/03/18 14:05:41;;;;;;;;;9.00;9.00;;;;;10.48;83.51;98867.53;6135197;28;96923;-57
2024/03/18 14:08:44;;;;;;;;;7.60;7.00;;;;;10.42;82.19;98867.34;6130425;28;96307;-56
2024/03/18 14:11:46;;;;;;;;;10.00;9.40;;;;;10.41;82.88;98867.56;6099001;28;98467;-58
2024/03/18 14:14:48;;;;;;;;;10.00;10.00;;;;;10.38;84.20;98873.41;6110685;28;96595;-57
2024/03/18 14:17:50;;;;;;;;;12.40;11.00;;;;;10.28;84.82;98868.53;6137932;28;96394;-57
2024/03/18 14:20:54;;;;;;;;;11.00;10.00;;;;;10.16;87.89;98874.84;6145202;28;96587;-56
2024/03/18 14:23:58;;;;;;;;;14.00;12.00;;;;;10.16;88.57;98870.28;6129796;28;96546;-57
2024/03/18 14:27:00;;;;;;;;;13.20;11.20;;;;;10.21;86.73;98865.06;6109775;28;99535;-58
2024/03/18 14:30:03;;;;;;;;;10.80;10.00;;;;;10.14;88.19;98869.66;6119646;28;96565;-58
2024/03/18 14:33:05;;;;;;;;;10.20;9.20;;;;;10.09;90.16;98866.78;6131982;28;96850;-57
2024/03/18 14:36:10;;;;;;;;;11.00;11.00;;;;;10.08;90.14;98875.06;6140107;28;96337;-57